sensor_id;sensor_type;location;lat;lon;timestamp;P1;durP1;ratioP1;P2;durP2;ratioP2
527;SDS011;250;47.712;7.508;2022-07-29T00:00:45;4.20;;;3.67;;
527;SDS011;250;47.712;7.508;2022-07-29T00:03:12;4.63;;;3.70;;
527;SDS011;250;47.712;7.508;2022-07-29T00:05:40;5.87;;;4.17;;
527;SDS011;250;47.712;7.508;2022-07-29T00:08:08;7.40;;;4.37;;
527;SDS011;250;47.712;7.508;2022-07-29T00:10:35;4.87;;;4.00;;
527;SDS011;250;47.712;7.508;2022-07-29T00:13:03;4.90;;;3.93;;
527;SDS011;250;47.712;7.508;2022-07-29T00:15:30;6.37;;;4.70;;
527;SDS011;250;47.712;7.508;2022-07-29T00:17:57;11.30;;;4.40;;
527;SDS011;250;47.712;7.508;2022-07-29T00:20:24;3.67;;;3.33;;
527;SDS011;250;47.712;7.508;2022-07-29T00:22:52;10.93;;;3.80;;
527;SDS011;250;47.712;7.508;2022-07-29T00:25:19;5.77;;;4.30;;
527;SDS011;250;47.712;7.508;2022-07-29T00:27:46;7.33;;;3.80;;
527;SDS011;250;47.712;7.508;2022-07-29T00:30:14;6.13;;;4.20;;
527;SDS011;250;47.712;7.508;2022-07-29T00:32:41;3.80;;;3.23;;
527;SDS011;250;47.712;7.508;2022-07-29T00:35:08;4.33;;;3.37;;
527;SDS011;250;47.712;7.508;2022-07-29T00:37:53;5.30;;;3.47;;
527;SDS011;250;47.712;7.508;2022-07-29T00:40:20;6.90;;;3.63;;
527;SDS011;250;47.712;7.508;2022-07-29T00:42:48;5.50;;;3.03;;
527;SDS011;250;47.712;7.508;2022-07-29T00:45:18;4.33;;;3.10;;
527;SDS011;250;47.712;7.508;2022-07-29T00:47:45;5.83;;;3.80;;
527;SDS011;250;47.712;7.508;2022-07-29T00:50:13;4.77;;;3.70;;
527;SDS011;250;47.712;7.508;2022-07-29T00:52:41;7.37;;;3.27;;
527;SDS011;250;47.712;7.508;2022-07-29T00:55:09;4.83;;;4.33;;
527;SDS011;250;47.712;7.508;2022-07-29T00:57:38;4.80;;;4.40;;
527;SDS011;250;47.712;7.508;2022-07-29T01:00:07;6.03;;;3.70;;
527;SDS011;250;47.712;7.508;2022-07-29T01:02:37;5.77;;;4.07;;
527;SDS011;250;47.712;7.508;2022-07-29T01:05:04;4.53;;;4.00;;
527;SDS011;250;47.712;7.508;2022-07-29T01:07:32;4.57;;;4.17;;
527;SDS011;250;47.712;7.508;2022-07-29T01:10:02;6.07;;;4.60;;
527;SDS011;250;47.712;7.508;2022-07-29T01:12:29;6.00;;;3.93;;
527;SDS011;250;47.712;7.508;2022-07-29T01:14:59;4.10;;;3.70;;
527;SDS011;250;47.712;7.508;2022-07-29T01:17:28;4.80;;;3.67;;
527;SDS011;250;47.712;7.508;2022-07-29T01:20:03;5.10;;;4.37;;
527;SDS011;250;47.712;7.508;2022-07-29T01:22:48;3.77;;;3.43;;
527;SDS011;250;47.712;7.508;2022-07-29T01:31:28;6.60;;;4.10;;
527;SDS011;250;47.712;7.508;2022-07-29T01:34:01;4.50;;;3.40;;
527;SDS011;250;47.712;7.508;2022-07-29T01:36:33;5.13;;;3.77;;
527;SDS011;250;47.712;7.508;2022-07-29T01:39:06;5.20;;;4.10;;
527;SDS011;250;47.712;7.508;2022-07-29T01:41:36;5.60;;;3.47;;
527;SDS011;250;47.712;7.508;2022-07-29T01:44:12;4.03;;;3.73;;
527;SDS011;250;47.712;7.508;2022-07-29T01:46:44;4.60;;;3.23;;
527;SDS011;250;47.712;7.508;2022-07-29T01:49:20;5.40;;;2.90;;
527;SDS011;250;47.712;7.508;2022-07-29T01:51:50;7.67;;;3.00;;
527;SDS011;250;47.712;7.508;2022-07-29T01:54:22;3.90;;;3.60;;
527;SDS011;250;47.712;7.508;2022-07-29T01:56:53;5.77;;;3.47;;
527;SDS011;250;47.712;7.508;2022-07-29T01:59:24;7.40;;;3.17;;
527;SDS011;250;47.712;7.508;2022-07-29T02:01:53;4.77;;;4.37;;
527;SDS011;250;47.712;7.508;2022-07-29T02:04:21;5.13;;;4.30;;
527;SDS011;250;47.712;7.508;2022-07-29T02:06:49;6.03;;;3.87;;
527;SDS011;250;47.712;7.508;2022-07-29T02:09:19;4.10;;;3.70;;
527;SDS011;250;47.712;7.508;2022-07-29T02:11:49;4.60;;;3.83;;
527;SDS011;250;47.712;7.508;2022-07-29T02:14:18;5.93;;;4.00;;
527;SDS011;250;47.712;7.508;2022-07-29T02:16:49;4.40;;;4.00;;
527;SDS011;250;47.712;7.508;2022-07-29T02:19:19;6.13;;;4.30;;
527;SDS011;250;47.712;7.508;2022-07-29T02:21:50;6.70;;;4.40;;
527;SDS011;250;47.712;7.508;2022-07-29T02:24:20;4.30;;;3.83;;
527;SDS011;250;47.712;7.508;2022-07-29T02:26:48;5.00;;;4.20;;
527;SDS011;250;47.712;7.508;2022-07-29T02:29:18;6.50;;;4.60;;
527;SDS011;250;47.712;7.508;2022-07-29T02:31:48;5.73;;;4.40;;
527;SDS011;250;47.712;7.508;2022-07-29T02:34:17;5.60;;;4.30;;
527;SDS011;250;47.712;7.508;2022-07-29T02:36:46;5.17;;;4.10;;
527;SDS011;250;47.712;7.508;2022-07-29T02:39:14;4.60;;;4.20;;
527;SDS011;250;47.712;7.508;2022-07-29T02:41:42;4.40;;;4.00;;
527;SDS011;250;47.712;7.508;2022-07-29T02:44:11;5.30;;;3.93;;
527;SDS011;250;47.712;7.508;2022-07-29T02:46:41;5.77;;;4.40;;
527;SDS011;250;47.712;7.508;2022-07-29T02:49:16;7.00;;;4.07;;
527;SDS011;250;47.712;7.508;2022-07-29T02:51:51;4.63;;;4.20;;
527;SDS011;250;47.712;7.508;2022-07-29T02:54:26;6.03;;;3.87;;
527;SDS011;250;47.712;7.508;2022-07-29T02:56:57;4.87;;;4.40;;
527;SDS011;250;47.712;7.508;2022-07-29T02:59:27;4.20;;;3.80;;
527;SDS011;250;47.712;7.508;2022-07-29T03:01:57;4.77;;;3.87;;
527;SDS011;250;47.712;7.508;2022-07-29T03:04:27;5.20;;;4.17;;
527;SDS011;250;47.712;7.508;2022-07-29T03:06:58;3.80;;;3.50;;
527;SDS011;250;47.712;7.508;2022-07-29T03:09:26;5.70;;;4.20;;
527;SDS011;250;47.712;7.508;2022-07-29T03:11:54;8.30;;;4.23;;
527;SDS011;250;47.712;7.508;2022-07-29T03:14:23;4.47;;;3.90;;
527;SDS011;250;47.712;7.508;2022-07-29T03:16:50;4.83;;;4.33;;
527;SDS011;250;47.712;7.508;2022-07-29T03:19:18;4.00;;;3.60;;
527;SDS011;250;47.712;7.508;2022-07-29T03:21:48;5.77;;;4.40;;
527;SDS011;250;47.712;7.508;2022-07-29T03:24:25;7.60;;;5.13;;
527;SDS011;250;47.712;7.508;2022-07-29T03:26:57;4.20;;;3.80;;
527;SDS011;250;47.712;7.508;2022-07-29T03:29:25;5.37;;;3.90;;
527;SDS011;250;47.712;7.508;2022-07-29T03:31:53;5.70;;;4.20;;
527;SDS011;250;47.712;7.508;2022-07-29T03:34:21;5.40;;;4.50;;
527;SDS011;250;47.712;7.508;2022-07-29T03:36:49;4.60;;;4.20;;
527;SDS011;250;47.712;7.508;2022-07-29T03:39:17;7.80;;;6.10;;
527;SDS011;250;47.712;7.508;2022-07-29T03:41:48;4.33;;;3.93;;
527;SDS011;250;47.712;7.508;2022-07-29T03:44:18;7.30;;;4.83;;
527;SDS011;250;47.712;7.508;2022-07-29T03:46:47;4.43;;;4.03;;
527;SDS011;250;47.712;7.508;2022-07-29T03:49:16;7.10;;;5.10;;
527;SDS011;250;47.712;7.508;2022-07-29T03:51:45;5.20;;;4.70;;
527;SDS011;250;47.712;7.508;2022-07-29T03:54:14;7.47;;;4.40;;
527;SDS011;250;47.712;7.508;2022-07-29T03:56:42;4.57;;;4.17;;
527;SDS011;250;47.712;7.508;2022-07-29T03:59:12;5.63;;;4.40;;
527;SDS011;250;47.712;7.508;2022-07-29T04:01:41;5.43;;;4.50;;
527;SDS011;250;47.712;7.508;2022-07-29T04:04:09;6.10;;;5.50;;
527;SDS011;250;47.712;7.508;2022-07-29T04:06:37;5.10;;;4.60;;
527;SDS011;250;47.712;7.508;2022-07-29T04:09:05;6.17;;;4.40;;
527;SDS011;250;47.712;7.508;2022-07-29T04:11:33;4.63;;;4.23;;
527;SDS011;250;47.712;7.508;2022-07-29T04:14:01;6.93;;;4.43;;
527;SDS011;250;47.712;7.508;2022-07-29T04:16:28;7.40;;;4.20;;
527;SDS011;250;47.712;7.508;2022-07-29T04:18:55;8.60;;;4.87;;
527;SDS011;250;47.712;7.508;2022-07-29T04:21:22;8.50;;;4.90;;
527;SDS011;250;47.712;7.508;2022-07-29T04:23:49;6.07;;;5.20;;
527;SDS011;250;47.712;7.508;2022-07-29T04:26:17;6.77;;;5.17;;
527;SDS011;250;47.712;7.508;2022-07-29T04:28:46;6.63;;;4.37;;
527;SDS011;250;47.712;7.508;2022-07-29T04:31:13;6.10;;;5.10;;
527;SDS011;250;47.712;7.508;2022-07-29T04:33:40;6.57;;;4.40;;
527;SDS011;250;47.712;7.508;2022-07-29T04:36:07;5.50;;;4.70;;
527;SDS011;250;47.712;7.508;2022-07-29T04:38:36;8.50;;;4.40;;
527;SDS011;250;47.712;7.508;2022-07-29T04:41:03;5.10;;;4.70;;
527;SDS011;250;47.712;7.508;2022-07-29T04:43:31;5.03;;;4.43;;
527;SDS011;250;47.712;7.508;2022-07-29T04:46:00;6.37;;;4.60;;
527;SDS011;250;47.712;7.508;2022-07-29T04:48:27;8.40;;;4.93;;
527;SDS011;250;47.712;7.508;2022-07-29T04:50:55;5.77;;;4.60;;
527;SDS011;250;47.712;7.508;2022-07-29T04:53:22;4.83;;;4.00;;
527;SDS011;250;47.712;7.508;2022-07-29T04:55:49;5.00;;;4.50;;
527;SDS011;250;47.712;7.508;2022-07-29T04:58:16;4.77;;;4.27;;
527;SDS011;250;47.712;7.508;2022-07-29T05:00:43;5.70;;;4.57;;
527;SDS011;250;47.712;7.508;2022-07-29T05:03:11;5.47;;;4.63;;
527;SDS011;250;47.712;7.508;2022-07-29T05:05:38;5.63;;;4.30;;
527;SDS011;250;47.712;7.508;2022-07-29T05:08:06;5.43;;;4.87;;
527;SDS011;250;47.712;7.508;2022-07-29T05:10:33;6.13;;;4.27;;
527;SDS011;250;47.712;7.508;2022-07-29T05:13:03;5.00;;;4.20;;
527;SDS011;250;47.712;7.508;2022-07-29T05:15:31;5.43;;;4.93;;
527;SDS011;250;47.712;7.508;2022-07-29T05:17:58;5.77;;;4.50;;
527;SDS011;250;47.712;7.508;2022-07-29T05:20:26;6.40;;;4.70;;
527;SDS011;250;47.712;7.508;2022-07-29T05:22:54;6.97;;;4.90;;
527;SDS011;250;47.712;7.508;2022-07-29T05:25:22;11.20;;;4.53;;
527;SDS011;250;47.712;7.508;2022-07-29T05:27:49;5.60;;;4.97;;
527;SDS011;250;47.712;7.508;2022-07-29T05:30:16;7.10;;;4.87;;
527;SDS011;250;47.712;7.508;2022-07-29T05:32:43;6.10;;;4.87;;
527;SDS011;250;47.712;7.508;2022-07-29T05:35:10;7.90;;;4.30;;
527;SDS011;250;47.712;7.508;2022-07-29T05:37:39;7.00;;;5.17;;
527;SDS011;250;47.712;7.508;2022-07-29T05:40:07;5.60;;;4.53;;
527;SDS011;250;47.712;7.508;2022-07-29T05:42:35;5.00;;;4.30;;
527;SDS011;250;47.712;7.508;2022-07-29T05:45:02;6.70;;;5.30;;
527;SDS011;250;47.712;7.508;2022-07-29T05:47:30;5.73;;;5.00;;
527;SDS011;250;47.712;7.508;2022-07-29T05:49:57;5.43;;;4.93;;
527;SDS011;250;47.712;7.508;2022-07-29T05:52:24;6.40;;;5.80;;
527;SDS011;250;47.712;7.508;2022-07-29T05:54:52;7.67;;;5.40;;
527;SDS011;250;47.712;7.508;2022-07-29T05:57:20;6.70;;;5.47;;
527;SDS011;250;47.712;7.508;2022-07-29T05:59:48;6.20;;;5.53;;
527;SDS011;250;47.712;7.508;2022-07-29T06:02:16;6.33;;;5.73;;
527;SDS011;250;47.712;7.508;2022-07-29T06:04:43;4.80;;;4.10;;
527;SDS011;250;47.712;7.508;2022-07-29T06:07:10;5.60;;;5.00;;
527;SDS011;250;47.712;7.508;2022-07-29T06:09:37;6.97;;;5.90;;
527;SDS011;250;47.712;7.508;2022-07-29T06:12:06;7.27;;;5.60;;
527;SDS011;250;47.712;7.508;2022-07-29T06:14:33;9.53;;;5.67;;
527;SDS011;250;47.712;7.508;2022-07-29T06:17:00;10.27;;;4.80;;
527;SDS011;250;47.712;7.508;2022-07-29T06:19:27;6.70;;;5.30;;
527;SDS011;250;47.712;7.508;2022-07-29T06:21:55;7.00;;;6.40;;
527;SDS011;250;47.712;7.508;2022-07-29T06:24:21;6.17;;;5.57;;
527;SDS011;250;47.712;7.508;2022-07-29T06:26:49;6.40;;;4.77;;
527;SDS011;250;47.712;7.508;2022-07-29T06:29:17;6.73;;;6.13;;
527;SDS011;250;47.712;7.508;2022-07-29T06:31:44;5.30;;;4.67;;
527;SDS011;250;47.712;7.508;2022-07-29T06:34:11;6.20;;;5.40;;
527;SDS011;250;47.712;7.508;2022-07-29T06:36:38;5.30;;;4.77;;
527;SDS011;250;47.712;7.508;2022-07-29T06:39:05;9.87;;;5.87;;
527;SDS011;250;47.712;7.508;2022-07-29T06:41:33;5.83;;;5.23;;
527;SDS011;250;47.712;7.508;2022-07-29T06:44:00;6.23;;;5.50;;
527;SDS011;250;47.712;7.508;2022-07-29T06:46:29;6.43;;;5.43;;
527;SDS011;250;47.712;7.508;2022-07-29T06:48:57;9.07;;;5.20;;
527;SDS011;250;47.712;7.508;2022-07-29T06:51:25;6.13;;;5.53;;
527;SDS011;250;47.712;7.508;2022-07-29T06:53:52;6.03;;;5.43;;
527;SDS011;250;47.712;7.508;2022-07-29T06:56:20;6.60;;;6.00;;
527;SDS011;250;47.712;7.508;2022-07-29T06:58:47;8.80;;;6.13;;
527;SDS011;250;47.712;7.508;2022-07-29T07:01:14;6.73;;;5.43;;
527;SDS011;250;47.712;7.508;2022-07-29T07:03:43;6.13;;;5.53;;
527;SDS011;250;47.712;7.508;2022-07-29T07:06:10;12.50;;;5.77;;
527;SDS011;250;47.712;7.508;2022-07-29T07:08:37;4.93;;;4.57;;
527;SDS011;250;47.712;7.508;2022-07-29T07:11:04;7.27;;;5.73;;
527;SDS011;250;47.712;7.508;2022-07-29T07:13:32;5.20;;;4.80;;
527;SDS011;250;47.712;7.508;2022-07-29T07:15:59;10.23;;;6.20;;
527;SDS011;250;47.712;7.508;2022-07-29T07:18:27;9.33;;;7.20;;
527;SDS011;250;47.712;7.508;2022-07-29T07:20:55;8.87;;;6.30;;
527;SDS011;250;47.712;7.508;2022-07-29T07:23:23;6.20;;;5.60;;
527;SDS011;250;47.712;7.508;2022-07-29T07:25:50;6.13;;;5.63;;
527;SDS011;250;47.712;7.508;2022-07-29T07:28:18;7.10;;;6.07;;
527;SDS011;250;47.712;7.508;2022-07-29T07:30:45;6.87;;;6.23;;
527;SDS011;250;47.712;7.508;2022-07-29T07:33:12;7.57;;;6.80;;
527;SDS011;250;47.712;7.508;2022-07-29T07:35:39;7.10;;;5.00;;
527;SDS011;250;47.712;7.508;2022-07-29T07:38:08;7.80;;;5.67;;
527;SDS011;250;47.712;7.508;2022-07-29T07:40:35;9.13;;;4.80;;
527;SDS011;250;47.712;7.508;2022-07-29T07:43:02;7.00;;;4.67;;
527;SDS011;250;47.712;7.508;2022-07-29T07:45:29;5.20;;;4.70;;
527;SDS011;250;47.712;7.508;2022-07-29T07:47:57;4.93;;;4.03;;
527;SDS011;250;47.712;7.508;2022-07-29T07:50:24;6.60;;;4.17;;
527;SDS011;250;47.712;7.508;2022-07-29T07:52:52;4.40;;;4.00;;
527;SDS011;250;47.712;7.508;2022-07-29T07:55:24;7.00;;;4.53;;
527;SDS011;250;47.712;7.508;2022-07-29T07:57:51;4.90;;;4.33;;
527;SDS011;250;47.712;7.508;2022-07-29T08:00:18;8.13;;;4.30;;
527;SDS011;250;47.712;7.508;2022-07-29T08:02:45;4.40;;;3.93;;
527;SDS011;250;47.712;7.508;2022-07-29T08:05:13;4.23;;;3.77;;
527;SDS011;250;47.712;7.508;2022-07-29T08:07:42;4.43;;;4.03;;
527;SDS011;250;47.712;7.508;2022-07-29T08:10:11;6.43;;;4.60;;
527;SDS011;250;47.712;7.508;2022-07-29T08:12:39;6.80;;;4.70;;
527;SDS011;250;47.712;7.508;2022-07-29T08:15:07;7.57;;;5.10;;
527;SDS011;250;47.712;7.508;2022-07-29T08:17:35;5.63;;;5.00;;
527;SDS011;250;47.712;7.508;2022-07-29T08:20:02;5.80;;;5.30;;
527;SDS011;250;47.712;7.508;2022-07-29T08:22:30;7.87;;;4.90;;
527;SDS011;250;47.712;7.508;2022-07-29T08:24:57;9.40;;;5.00;;
527;SDS011;250;47.712;7.508;2022-07-29T08:27:24;6.07;;;4.80;;
527;SDS011;250;47.712;7.508;2022-07-29T08:29:55;6.87;;;4.40;;
527;SDS011;250;47.712;7.508;2022-07-29T08:32:22;5.50;;;4.90;;
527;SDS011;250;47.712;7.508;2022-07-29T08:34:49;7.73;;;4.93;;
527;SDS011;250;47.712;7.508;2022-07-29T08:37:16;6.30;;;4.40;;
527;SDS011;250;47.712;7.508;2022-07-29T08:39:43;5.80;;;4.30;;
527;SDS011;250;47.712;7.508;2022-07-29T08:42:10;4.13;;;3.60;;
527;SDS011;250;47.712;7.508;2022-07-29T08:44:38;4.00;;;3.57;;
527;SDS011;250;47.712;7.508;2022-07-29T08:47:07;6.80;;;3.90;;
527;SDS011;250;47.712;7.508;2022-07-29T08:49:34;9.73;;;3.83;;
527;SDS011;250;47.712;7.508;2022-07-29T08:52:02;4.17;;;3.50;;
527;SDS011;250;47.712;7.508;2022-07-29T08:54:29;3.90;;;3.23;;
527;SDS011;250;47.712;7.508;2022-07-29T08:56:56;5.07;;;3.60;;
527;SDS011;250;47.712;7.508;2022-07-29T08:59:24;4.70;;;3.27;;
527;SDS011;250;47.712;7.508;2022-07-29T09:01:53;4.67;;;3.43;;
527;SDS011;250;47.712;7.508;2022-07-29T09:04:25;3.90;;;3.50;;
527;SDS011;250;47.712;7.508;2022-07-29T09:06:56;3.80;;;2.90;;
527;SDS011;250;47.712;7.508;2022-07-29T09:09:26;4.00;;;3.30;;
527;SDS011;250;47.712;7.508;2022-07-29T09:11:53;4.97;;;3.90;;
527;SDS011;250;47.712;7.508;2022-07-29T09:14:20;6.60;;;3.57;;
527;SDS011;250;47.712;7.508;2022-07-29T09:16:49;4.17;;;3.80;;
527;SDS011;250;47.712;7.508;2022-07-29T09:19:24;3.77;;;3.23;;
527;SDS011;250;47.712;7.508;2022-07-29T09:21:54;4.27;;;3.87;;
527;SDS011;250;47.712;7.508;2022-07-29T09:24:25;5.93;;;4.10;;
527;SDS011;250;47.712;7.508;2022-07-29T09:27:01;3.57;;;3.20;;
527;SDS011;250;47.712;7.508;2022-07-29T09:29:28;6.40;;;3.57;;
527;SDS011;250;47.712;7.508;2022-07-29T09:31:56;6.60;;;4.60;;
527;SDS011;250;47.712;7.508;2022-07-29T09:34:24;6.03;;;4.20;;
527;SDS011;250;47.712;7.508;2022-07-29T09:36:53;6.60;;;3.90;;
527;SDS011;250;47.712;7.508;2022-07-29T09:39:28;4.40;;;3.80;;
527;SDS011;250;47.712;7.508;2022-07-29T09:42:01;6.43;;;4.23;;
527;SDS011;250;47.712;7.508;2022-07-29T09:44:43;4.40;;;4.00;;
527;SDS011;250;47.712;7.508;2022-07-29T09:47:13;4.57;;;3.93;;
527;SDS011;250;47.712;7.508;2022-07-29T09:49:50;8.60;;;4.47;;
527;SDS011;250;47.712;7.508;2022-07-29T09:52:20;6.90;;;4.30;;
527;SDS011;250;47.712;7.508;2022-07-29T09:54:47;5.77;;;4.60;;
527;SDS011;250;47.712;7.508;2022-07-29T09:57:23;5.40;;;4.90;;
527;SDS011;250;47.712;7.508;2022-07-29T09:59:57;5.10;;;4.30;;
527;SDS011;250;47.712;7.508;2022-07-29T10:02:30;6.90;;;4.77;;
527;SDS011;250;47.712;7.508;2022-07-29T10:04:58;6.37;;;4.30;;
527;SDS011;250;47.712;7.508;2022-07-29T10:07:27;6.67;;;3.80;;
527;SDS011;250;47.712;7.508;2022-07-29T10:10:10;4.80;;;4.10;;
527;SDS011;250;47.712;7.508;2022-07-29T10:12:51;5.47;;;4.13;;
527;SDS011;250;47.712;7.508;2022-07-29T10:15:21;4.43;;;3.67;;
527;SDS011;250;47.712;7.508;2022-07-29T10:17:49;4.00;;;3.60;;
527;SDS011;250;47.712;7.508;2022-07-29T10:20:17;5.23;;;4.10;;
527;SDS011;250;47.712;7.508;2022-07-29T10:22:46;6.40;;;3.87;;
527;SDS011;250;47.712;7.508;2022-07-29T10:25:13;4.90;;;4.00;;
527;SDS011;250;47.712;7.508;2022-07-29T10:27:41;3.50;;;3.20;;
527;SDS011;250;47.712;7.508;2022-07-29T10:30:09;4.33;;;3.60;;
527;SDS011;250;47.712;7.508;2022-07-29T10:32:40;4.67;;;3.93;;
527;SDS011;250;47.712;7.508;2022-07-29T10:35:19;6.57;;;3.70;;
527;SDS011;250;47.712;7.508;2022-07-29T10:40:55;4.40;;;3.20;;
527;SDS011;250;47.712;7.508;2022-07-29T10:43:49;4.20;;;3.43;;
527;SDS011;250;47.712;7.508;2022-07-29T10:46:19;6.60;;;3.50;;
527;SDS011;250;47.712;7.508;2022-07-29T10:49:05;5.60;;;2.97;;
527;SDS011;250;47.712;7.508;2022-07-29T10:57:24;5.87;;;3.37;;
527;SDS011;250;47.712;7.508;2022-07-29T11:02:57;3.73;;;2.67;;
527;SDS011;250;47.712;7.508;2022-07-29T11:05:26;5.33;;;2.80;;
527;SDS011;250;47.712;7.508;2022-07-29T11:10:51;5.13;;;2.90;;
527;SDS011;250;47.712;7.508;2022-07-29T11:16:13;3.87;;;3.30;;
527;SDS011;250;47.712;7.508;2022-07-29T11:21:44;6.33;;;3.43;;
527;SDS011;250;47.712;7.508;2022-07-29T11:24:13;4.17;;;2.47;;
527;SDS011;250;47.712;7.508;2022-07-29T11:26:41;3.23;;;2.93;;
527;SDS011;250;47.712;7.508;2022-07-29T11:29:16;4.67;;;3.20;;
527;SDS011;250;47.712;7.508;2022-07-29T11:31:48;4.60;;;2.97;;
527;SDS011;250;47.712;7.508;2022-07-29T11:34:20;5.87;;;2.80;;
527;SDS011;250;47.712;7.508;2022-07-29T11:39:41;4.10;;;2.60;;
527;SDS011;250;47.712;7.508;2022-07-29T11:45:09;3.83;;;2.67;;
527;SDS011;250;47.712;7.508;2022-07-29T11:47:39;3.60;;;2.60;;
527;SDS011;250;47.712;7.508;2022-07-29T11:50:08;2.80;;;2.30;;
527;SDS011;250;47.712;7.508;2022-07-29T11:52:39;3.13;;;2.80;;
527;SDS011;250;47.712;7.508;2022-07-29T11:55:10;7.93;;;3.27;;
527;SDS011;250;47.712;7.508;2022-07-29T11:57:45;7.03;;;2.90;;
527;SDS011;250;47.712;7.508;2022-07-29T12:00:21;3.90;;;2.50;;
527;SDS011;250;47.712;7.508;2022-07-29T12:02:51;3.50;;;2.80;;
527;SDS011;250;47.712;7.508;2022-07-29T12:05:18;7.77;;;3.63;;
527;SDS011;250;47.712;7.508;2022-07-29T12:07:46;3.70;;;3.00;;
527;SDS011;250;47.712;7.508;2022-07-29T12:10:14;4.90;;;2.60;;
527;SDS011;250;47.712;7.508;2022-07-29T12:12:41;3.40;;;2.90;;
527;SDS011;250;47.712;7.508;2022-07-29T12:15:12;4.17;;;2.47;;
527;SDS011;250;47.712;7.508;2022-07-29T12:17:43;8.47;;;4.33;;
527;SDS011;250;47.712;7.508;2022-07-29T12:20:10;3.50;;;2.63;;
527;SDS011;250;47.712;7.508;2022-07-29T12:22:39;3.23;;;2.43;;
527;SDS011;250;47.712;7.508;2022-07-29T12:25:09;4.30;;;2.83;;
527;SDS011;250;47.712;7.508;2022-07-29T12:27:40;6.03;;;3.20;;
527;SDS011;250;47.712;7.508;2022-07-29T12:30:10;4.77;;;2.70;;
527;SDS011;250;47.712;7.508;2022-07-29T12:32:39;2.90;;;2.60;;
527;SDS011;250;47.712;7.508;2022-07-29T12:35:10;3.30;;;2.10;;
527;SDS011;250;47.712;7.508;2022-07-29T12:37:39;4.60;;;2.40;;
527;SDS011;250;47.712;7.508;2022-07-29T12:40:08;4.10;;;2.63;;
527;SDS011;250;47.712;7.508;2022-07-29T12:42:37;6.20;;;2.47;;
527;SDS011;250;47.712;7.508;2022-07-29T12:45:06;5.17;;;2.70;;
527;SDS011;250;47.712;7.508;2022-07-29T12:47:37;3.73;;;3.20;;
527;SDS011;250;47.712;7.508;2022-07-29T12:50:19;3.50;;;2.27;;
527;SDS011;250;47.712;7.508;2022-07-29T12:52:46;3.00;;;2.70;;
527;SDS011;250;47.712;7.508;2022-07-29T12:55:13;4.13;;;3.40;;
527;SDS011;250;47.712;7.508;2022-07-29T12:57:44;4.60;;;2.57;;
527;SDS011;250;47.712;7.508;2022-07-29T13:00:13;4.00;;;2.43;;
527;SDS011;250;47.712;7.508;2022-07-29T13:02:41;4.23;;;2.30;;
527;SDS011;250;47.712;7.508;2022-07-29T13:05:09;5.83;;;2.40;;
527;SDS011;250;47.712;7.508;2022-07-29T13:07:39;4.33;;;2.60;;
527;SDS011;250;47.712;7.508;2022-07-29T13:10:09;3.00;;;2.00;;
527;SDS011;250;47.712;7.508;2022-07-29T13:12:38;3.43;;;2.10;;
527;SDS011;250;47.712;7.508;2022-07-29T13:15:12;4.37;;;3.17;;
527;SDS011;250;47.712;7.508;2022-07-29T13:17:41;4.87;;;2.20;;
527;SDS011;250;47.712;7.508;2022-07-29T13:20:10;4.20;;;1.93;;
527;SDS011;250;47.712;7.508;2022-07-29T13:22:41;3.83;;;2.40;;
527;SDS011;250;47.712;7.508;2022-07-29T13:25:08;3.30;;;2.10;;
527;SDS011;250;47.712;7.508;2022-07-29T13:27:36;6.83;;;3.20;;
527;SDS011;250;47.712;7.508;2022-07-29T13:30:05;19.73;;;5.97;;
527;SDS011;250;47.712;7.508;2022-07-29T13:32:34;3.33;;;2.40;;
527;SDS011;250;47.712;7.508;2022-07-29T13:35:03;3.87;;;2.50;;
527;SDS011;250;47.712;7.508;2022-07-29T13:37:32;2.17;;;1.80;;
527;SDS011;250;47.712;7.508;2022-07-29T13:40:01;3.00;;;2.03;;
527;SDS011;250;47.712;7.508;2022-07-29T13:42:29;3.63;;;2.10;;
527;SDS011;250;47.712;7.508;2022-07-29T13:44:56;2.80;;;2.03;;
527;SDS011;250;47.712;7.508;2022-07-29T13:47:24;2.50;;;1.70;;
527;SDS011;250;47.712;7.508;2022-07-29T13:49:51;17.97;;;4.10;;
527;SDS011;250;47.712;7.508;2022-07-29T13:52:18;20.07;;;4.57;;
527;SDS011;250;47.712;7.508;2022-07-29T13:54:46;2.53;;;2.20;;
527;SDS011;250;47.712;7.508;2022-07-29T13:57:14;10.80;;;3.20;;
527;SDS011;250;47.712;7.508;2022-07-29T13:59:42;8.53;;;4.20;;
527;SDS011;250;47.712;7.508;2022-07-29T14:02:09;23.53;;;6.13;;
527;SDS011;250;47.712;7.508;2022-07-29T14:04:38;5.93;;;2.67;;
527;SDS011;250;47.712;7.508;2022-07-29T14:07:06;6.93;;;2.30;;
527;SDS011;250;47.712;7.508;2022-07-29T14:09:33;16.10;;;4.73;;
527;SDS011;250;47.712;7.508;2022-07-29T14:12:00;2.40;;;1.77;;
527;SDS011;250;47.712;7.508;2022-07-29T14:14:30;3.83;;;1.83;;
527;SDS011;250;47.712;7.508;2022-07-29T14:16:57;3.13;;;2.17;;
527;SDS011;250;47.712;7.508;2022-07-29T14:19:24;6.50;;;2.90;;
527;SDS011;250;47.712;7.508;2022-07-29T14:21:52;5.23;;;2.47;;
527;SDS011;250;47.712;7.508;2022-07-29T14:24:19;5.50;;;1.83;;
527;SDS011;250;47.712;7.508;2022-07-29T14:26:46;7.83;;;2.20;;
527;SDS011;250;47.712;7.508;2022-07-29T14:29:13;4.17;;;2.30;;
527;SDS011;250;47.712;7.508;2022-07-29T14:31:41;11.97;;;4.40;;
527;SDS011;250;47.712;7.508;2022-07-29T14:34:08;6.20;;;2.17;;
527;SDS011;250;47.712;7.508;2022-07-29T14:36:36;8.10;;;2.30;;
527;SDS011;250;47.712;7.508;2022-07-29T14:39:03;6.70;;;2.57;;
527;SDS011;250;47.712;7.508;2022-07-29T14:41:30;5.10;;;2.60;;
527;SDS011;250;47.712;7.508;2022-07-29T14:43:57;7.50;;;3.00;;
527;SDS011;250;47.712;7.508;2022-07-29T14:46:25;3.57;;;1.57;;
527;SDS011;250;47.712;7.508;2022-07-29T14:48:54;3.00;;;1.63;;
527;SDS011;250;47.712;7.508;2022-07-29T14:51:21;4.00;;;1.87;;
527;SDS011;250;47.712;7.508;2022-07-29T14:53:48;2.30;;;1.80;;
527;SDS011;250;47.712;7.508;2022-07-29T14:56:15;3.00;;;1.80;;
527;SDS011;250;47.712;7.508;2022-07-29T14:58:42;3.77;;;1.80;;
527;SDS011;250;47.712;7.508;2022-07-29T15:01:09;2.93;;;1.50;;
527;SDS011;250;47.712;7.508;2022-07-29T15:03:36;3.97;;;2.00;;
527;SDS011;250;47.712;7.508;2022-07-29T15:06:05;3.13;;;1.93;;
527;SDS011;250;47.712;7.508;2022-07-29T15:08:32;3.67;;;2.47;;
527;SDS011;250;47.712;7.508;2022-07-29T15:10:59;6.37;;;2.03;;
527;SDS011;250;47.712;7.508;2022-07-29T15:13:26;3.37;;;1.93;;
527;SDS011;250;47.712;7.508;2022-07-29T15:15:54;5.70;;;2.30;;
527;SDS011;250;47.712;7.508;2022-07-29T15:18:21;7.57;;;2.17;;
527;SDS011;250;47.712;7.508;2022-07-29T15:20:48;3.53;;;1.90;;
527;SDS011;250;47.712;7.508;2022-07-29T15:23:17;2.87;;;2.30;;
527;SDS011;250;47.712;7.508;2022-07-29T15:25:44;7.07;;;2.50;;
527;SDS011;250;47.712;7.508;2022-07-29T15:28:11;2.90;;;1.87;;
527;SDS011;250;47.712;7.508;2022-07-29T15:30:38;3.53;;;1.90;;
527;SDS011;250;47.712;7.508;2022-07-29T15:33:07;6.80;;;1.87;;
527;SDS011;250;47.712;7.508;2022-07-29T15:35:35;4.17;;;1.83;;
527;SDS011;250;47.712;7.508;2022-07-29T15:38:02;2.10;;;1.50;;
527;SDS011;250;47.712;7.508;2022-07-29T15:40:31;2.80;;;1.47;;
527;SDS011;250;47.712;7.508;2022-07-29T15:42:58;3.60;;;2.30;;
527;SDS011;250;47.712;7.508;2022-07-29T15:45:33;3.30;;;1.67;;
527;SDS011;250;47.712;7.508;2022-07-29T15:48:01;4.07;;;1.73;;
527;SDS011;250;47.712;7.508;2022-07-29T15:50:30;3.07;;;1.60;;
527;SDS011;250;47.712;7.508;2022-07-29T15:52:57;4.40;;;2.00;;
527;SDS011;250;47.712;7.508;2022-07-29T15:55:24;6.13;;;1.50;;
527;SDS011;250;47.712;7.508;2022-07-29T15:57:53;2.10;;;1.40;;
527;SDS011;250;47.712;7.508;2022-07-29T16:00:20;2.43;;;1.63;;
527;SDS011;250;47.712;7.508;2022-07-29T16:02:48;2.50;;;1.67;;
527;SDS011;250;47.712;7.508;2022-07-29T16:05:16;4.13;;;1.70;;
527;SDS011;250;47.712;7.508;2022-07-29T16:07:43;3.77;;;2.20;;
527;SDS011;250;47.712;7.508;2022-07-29T16:10:10;2.90;;;1.77;;
527;SDS011;250;47.712;7.508;2022-07-29T16:12:37;2.37;;;1.60;;
527;SDS011;250;47.712;7.508;2022-07-29T16:15:06;2.60;;;1.90;;
527;SDS011;250;47.712;7.508;2022-07-29T16:17:35;2.20;;;1.47;;
527;SDS011;250;47.712;7.508;2022-07-29T16:20:03;5.50;;;1.80;;
527;SDS011;250;47.712;7.508;2022-07-29T16:22:31;3.27;;;2.60;;
527;SDS011;250;47.712;7.508;2022-07-29T16:24:58;3.10;;;1.80;;
527;SDS011;250;47.712;7.508;2022-07-29T16:27:25;4.00;;;1.80;;